Time;durP1;ratioP1;P1;durP2;ratioP2;P2;SDS_P1;SDS_P2;PMS_P1;PMS_P2;Temp;Humidity;BMP_temperature;BMP_pressure;BME280_temperature;BME280_humidity;BME280_pressure;Samples;Min_cycle;Max_cycle;Signal;HPM_P1;HPM_P2
2022/08/29 00:00:42;;;;;;;24.45;10.05;;;;;;;21.01;79.69;99425.27;1735739;81;21535;-69
2022/08/29 00:03:10;;;;;;;12.23;7.87;;;;;;;20.99;79.58;99420.14;1700940;84;21034;-69
2022/08/29 00:05:37;;;;;;;11.55;7.72;;;;;;;21.01;79.67;99422.53;1711065;83;21007;-68
2022/08/29 00:08:04;;;;;;;10.20;6.47;;;;;;;21.03;79.62;99423.02;1721120;83;21136;-69
2022/08/29 00:10:33;;;;;;;11.70;7.20;;;;;;;21.06;79.44;99421.00;1721207;82;20951;-68
2022/08/29 00:13:02;;;;;;;11.20;6.37;;;;;;;21.05;79.34;99429.80;1720712;81;21051;-69
2022/08/29 00:15:29;;;;;;;11.88;6.03;;;;;;;21.08;79.30;99422.85;1728811;82;21002;-70
2022/08/29 00:17:56;;;;;;;8.40;6.25;;;;;;;21.10;79.15;99423.34;1704049;82;21066;-70
2022/08/29 00:20:26;;;;;;;7.08;5.78;;;;;;;21.12;78.97;99418.33;1713559;82;21086;-71
2022/08/29 00:22:53;;;;;;;12.78;6.35;;;;;;;21.09;78.93;99428.56;1702210;84;21523;-74
2022/08/29 00:25:20;;;;;;;10.48;6.30;;;;;;;21.13;78.84;99429.52;1703461;82;21046;-74
2022/08/29 00:27:46;;;;;;;13.40;5.65;;;;;;;21.09;78.58;99422.53;1699188;83;21015;-73
2022/08/29 00:30:14;;;;;;;7.85;5.70;;;;;;;21.08;78.49;99420.92;1751172;80;21136;-74
2022/08/29 00:32:40;;;;;;;11.95;6.33;;;;;;;21.05;78.40;99420.78;1730202;82;21100;-77
2022/08/29 00:35:11;;;;;;;8.53;6.10;;;;;;;21.02;77.75;99425.52;1728029;81;20939;-74
2022/08/29 00:37:39;;;;;;;15.65;6.10;;;;;;;21.04;77.56;99424.64;1717610;82;21228;-75
2022/08/29 00:40:09;;;;;;;19.60;6.97;;;;;;;21.05;76.32;99425.69;1736540;81;20980;-76
2022/08/29 00:42:36;;;;;;;6.53;5.10;;;;;;;21.06;75.75;99422.36;1735335;81;21114;-76
2022/08/29 00:45:04;;;;;;;10.72;6.17;;;;;;;21.06;75.75;99421.80;1724773;82;21645;-76
2022/08/29 00:47:33;;;;;;;12.73;6.17;;;;;;;21.03;75.72;99416.99;1705611;83;20959;-75
2022/08/29 00:49:59;;;;;;;9.73;5.83;;;;;;;21.03;75.16;99408.80;1721022;82;21564;-77
2022/08/29 00:52:36;;;;;;;9.23;6.20;;;;;;;21.06;74.70;99409.49;1700949;83;20968;-78
2022/08/29 00:55:10;;;;;;;9.75;5.92;;;;;;;21.06;74.56;99409.49;1727643;82;21075;-75
2022/08/29 00:57:39;;;;;;;11.35;6.45;;;;;;;21.03;74.44;99405.25;1754244;80;21711;-75
2022/08/29 01:00:08;;;;;;;10.55;6.70;;;;;;;20.98;74.70;99405.42;1727276;80;21010;-76
2022/08/29 01:02:36;;;;;;;9.63;6.25;;;;;;;20.95;75.28;99395.14;1716125;82;21027;-74
2022/08/29 01:05:04;;;;;;;8.53;5.58;;;;;;;20.92;75.76;99396.58;1731322;80;20985;-76
2022/08/29 01:07:31;;;;;;;10.28;6.85;;;;;;;20.89;75.77;99389.05;1750925;82;21584;-76
2022/08/29 01:12:14;;;;;;;14.60;6.75;;;;;;;20.92;75.52;99395.22;1727706;82;21156;-75
2022/08/29 01:12:41;;;;;;;10.85;6.30;;;;;;;20.94;75.08;99388.88;1685143;85;20945;-74
2022/08/29 01:15:12;;;;;;;15.03;7.20;;;;;;;20.96;75.06;99394.80;1695482;84;21054;-73
2022/08/29 01:17:43;;;;;;;15.18;6.87;;;;;;;20.99;74.31;99397.46;1701666;83;21048;-74
2022/08/29 01:20:51;;;;;;;11.22;7.12;;;;;;;21.00;73.51;99395.78;1685583;83;21060;-73
2022/08/29 01:24:00;;;;;;;10.75;6.90;;;;;;;21.01;72.73;99390.52;1695484;83;22213;-74
2022/08/29 01:26:27;;;;;;;10.38;6.87;;;;;;;21.03;71.98;99394.31;1714449;82;20979;-75
2022/08/29 01:28:54;;;;;;;10.95;7.58;;;;;;;20.98;72.46;99385.72;1681065;83;21075;-74
2022/08/29 01:31:27;;;;;;;10.72;6.47;;;;;;;20.94;73.03;99390.80;1684765;84;20973;-73
2022/08/29 01:33:57;;;;;;;14.53;6.78;;;;;;;20.92;73.24;99393.04;1699821;84;21746;-73
2022/08/29 01:36:26;;;;;;;12.10;6.33;;;;;;;20.88;73.22;99394.27;1701430;83;21148;-71
2022/08/29 01:38:53;;;;;;;10.13;6.45;;;;;;;20.89;73.17;99389.05;1701216;84;21023;-71
2022/08/29 01:41:20;;;;;;;10.10;7.10;;;;;;;20.93;73.15;99383.16;1701525;84;21016;-76
2022/08/29 01:43:50;;;;;;;10.88;7.30;;;;;;;20.97;71.98;99384.11;1717273;82;21054;-74
2022/08/29 01:46:21;;;;;;;14.50;6.83;;;;;;;21.00;72.00;99382.11;1729882;82;21000;-74
2022/08/29 01:48:48;;;;;;;12.78;7.12;;;;;;;21.00;72.06;99376.64;1731932;82;21103;-72
2022/08/29 01:51:15;;;;;;;9.03;7.08;;;;;;;21.00;72.24;99376.64;1703370;82;21050;-72
2022/08/29 01:53:42;;;;;;;8.28;6.85;;;;;;;20.74;72.62;99371.78;1702036;84;20912;-72
2022/08/29 01:56:13;;;;;;;9.98;6.45;;;;;;;20.53;73.91;99379.84;1701894;84;21550;-72
2022/08/29 01:58:42;;;;;;;8.55;6.62;;;;;;;20.36;74.47;99382.03;1702624;83;20988;-73
2022/08/29 02:01:09;;;;;;;11.95;6.40;;;;;;;20.31;74.25;99381.39;1701973;82;21545;-71
2022/08/29 02:03:36;;;;;;;8.38;6.45;;;;;;;20.31;74.80;99377.29;1701682;84;21027;-72
2022/08/29 02:06:03;;;;;;;9.68;5.90;;;;;;;20.30;76.12;99379.75;1652661;84;21529;-72
2022/08/29 02:08:30;;;;;;;16.25;6.85;;;;;;;20.31;77.24;99384.12;1670748;85;21106;-71
2022/08/29 02:10:57;;;;;;;7.65;5.60;;;;;;;20.27;78.30;99382.57;1691870;84;21101;-71
2022/08/29 02:13:27;;;;;;;16.15;5.78;;;;;;;20.27;78.88;99383.13;1718274;82;21162;-72
2022/08/29 02:15:55;;;;;;;9.50;5.60;;;;;;;20.37;78.42;99386.94;1680513;82;20980;-71
2022/08/29 02:18:25;;;;;;;12.93;5.65;;;;;;;20.40;78.33;99392.55;1726610;82;21052;-72
2022/08/29 02:20:49;;;;;;;9.90;6.03;;;;;;;20.43;78.61;99393.86;1727915;83;21361;-73
2022/08/29 02:23:16;;;;;;;13.32;6.47;;;;;;;20.48;78.24;99386.83;1713361;83;21090;-72
2022/08/29 02:25:43;;;;;;;11.53;7.20;;;;;;;20.55;77.97;99382.27;1718718;83;21109;-72
2022/08/29 02:28:10;;;;;;;9.98;6.80;;;;;;;20.61;77.47;99389.17;1719237;83;21050;-76
2022/08/29 02:30:43;;;;;;;14.83;7.58;;;;;;;20.68;77.10;99385.37;1719472;83;20987;-71
2022/08/29 02:33:12;;;;;;;15.60;6.80;;;;;;;20.72;76.47;99388.50;1719820;83;21015;-75
2022/08/29 02:35:38;;;;;;;10.18;6.20;;;;;;;20.78;75.90;99393.23;1719428;83;21004;-73
2022/08/29 02:38:05;;;;;;;12.37;7.10;;;;;;;20.82;75.21;99388.16;1722105;82;21196;-73
2022/08/29 02:40:32;;;;;;;11.10;7.55;;;;;;;20.88;75.22;99384.70;1721611;82;20957;-72
2022/08/29 02:42:59;;;;;;;12.28;6.37;;;;;;;20.97;74.66;99390.14;1746940;81;21002;-74
2022/08/29 02:45:26;;;;;;;11.83;5.35;;;;;;;21.07;74.48;99393.89;1721426;83;21042;-75
2022/08/29 02:47:52;;;;;;;12.80;6.05;;;;;;;21.16;74.18;99399.61;1718293;83;21035;-73
2022/08/29 02:50:20;;;;;;;9.58;6.00;;;;;;;21.26;73.43;99408.02;1718243;83;22089;-73
2022/08/29 02:52:47;;;;;;;9.28;6.62;;;;;;;21.34;72.94;99409.14;1719365;83;20943;-71
2022/08/29 02:55:15;;;;;;;11.53;6.75;;;;;;;21.39;72.62;99404.27;1705262;82;21490;-72
2022/08/29 02:57:42;;;;;;;8.88;7.03;;;;;;;21.41;72.38;99405.31;1706893;84;21493;-73
2022/08/29 03:00:15;;;;;;;7.65;5.75;;;;;;;21.43;72.28;99409.34;1721354;82;21508;-72
2022/08/29 03:02:46;;;;;;;10.53;7.12;;;;;;;21.41;72.09;99408.05;1749558;82;21027;-72
2022/08/29 03:05:14;;;;;;;13.90;7.45;;;;;;;21.03;72.95;99404.69;1729199;82;21051;-71
2022/08/29 03:07:40;;;;;;;16.80;6.72;;;;;;;20.79;76.26;99410.69;1736406;82;20928;-71
2022/08/29 03:10:07;;;;;;;11.22;6.75;;;;;;;20.62;74.43;99409.36;1706650;82;21020;-72
2022/08/29 03:12:35;;;;;;;10.32;6.83;;;;;;;20.57;74.64;99409.52;1703007;84;21047;-72
2022/08/29 03:15:03;;;;;;;12.73;7.90;;;;;;;20.55;75.59;99402.19;1675867;84;21249;-73
2022/08/29 03:17:30;;;;;;;10.40;8.18;;;;;;;20.50;75.97;99407.02;1649545;85;20993;-71
2022/08/29 03:19:57;;;;;;;12.53;7.75;;;;;;;20.44;75.95;99411.27;1650229;87;20966;-72
2022/08/29 03:22:25;;;;;;;16.02;7.10;;;;;;;20.40;75.57;99411.68;1649338;87;21583;-71
2022/08/29 03:24:51;;;;;;;15.38;8.33;;;;;;;20.43;75.19;99418.44;1701692;84;21024;-71
2022/08/29 03:27:18;;;;;;;12.65;8.15;;;;;;;20.48;75.20;99411.42;1678201;84;21033;-72
2022/08/29 03:29:45;;;;;;;9.50;8.13;;;;;;;20.49;74.24;99414.41;1703670;84;21047;-72
2022/08/29 03:32:11;;;;;;;8.83;7.10;;;;;;;20.53;73.90;99414.59;1672896;84;21064;-72
2022/08/29 03:34:38;;;;;;;13.25;7.87;;;;;;;20.64;73.27;99414.48;1668417;86;21059;-73
2022/08/29 03:37:05;;;;;;;13.90;8.40;;;;;;;20.68;72.93;99416.80;1639930;86;21123;-73
2022/08/29 03:39:35;;;;;;;15.35;7.92;;;;;;;20.68;72.86;99418.97;1660663;84;20959;-72
2022/08/29 03:42:01;;;;;;;16.95;8.28;;;;;;;20.69;73.17;99417.86;1682112;85;21496;-73
2022/08/29 03:44:27;;;;;;;13.35;6.97;;;;;;;20.72;73.24;99421.30;1682239;83;21097;-78
2022/08/29 03:46:55;;;;;;;9.65;7.10;;;;;;;20.76;73.19;99425.58;1690581;83;21677;-78
2022/08/29 03:49:22;;;;;;;11.57;7.60;;;;;;;20.82;73.11;99428.36;1656694;85;21070;-71
2022/08/29 03:51:48;;;;;;;9.08;6.62;;;;;;;20.90;72.91;99424.83;1681353;83;21580;-73
2022/08/29 03:54:15;;;;;;;15.15;7.75;;;;;;;20.97;72.60;99429.22;1680201;85;21037;-73
2022/08/29 03:56:42;;;;;;;8.65;6.53;;;;;;;21.02;72.00;99425.52;1683350;83;21503;-81
2022/08/29 03:59:10;;;;;;;17.85;7.58;;;;;;;21.05;71.13;99427.62;1664057;84;21081;-74
2022/08/29 04:01:37;;;;;;;13.98;6.83;;;;;;;21.11;70.41;99429.83;1675495;84;21531;-71
2022/08/29 04:04:03;;;;;;;9.93;6.40;;;;;;;21.17;69.59;99436.77;1704152;84;21316;-71
2022/08/29 04:06:31;;;;;;;11.05;6.33;;;;;;;21.22;69.06;99431.70;1685382;84;21134;-74
2022/08/29 04:08:58;;;;;;;8.75;6.95;;;;;;;21.26;68.66;99438.11;1697886;84;21056;-71
2022/08/29 04:11:27;;;;;;;11.48;7.17;;;;;;;21.29;68.23;99430.64;1709046;82;20980;-77
2022/08/29 04:13:54;;;;;;;12.35;6.75;;;;;;;21.30;68.16;99437.13;1716860;82;21553;-70
2022/08/29 04:16:24;;;;;;;15.78;8.38;;;;;;;21.31;68.09;99431.91;1719908;83;21261;-69
2022/08/29 04:18:51;;;;;;;15.30;7.60;;;;;;;21.34;67.98;99436.50;1757236;81;21016;-72
2022/08/29 04:21:19;;;;;;;18.57;7.17;;;;;;;21.34;67.99;99431.02;1730317;83;43034;-71
2022/08/29 04:23:45;;;;;;;10.65;6.78;;;;;;;21.34;67.83;99436.50;1730227;83;21091;-72
2022/08/29 04:26:14;;;;;;;10.45;6.72;;;;;;;21.35;67.65;99438.89;1742022;81;21519;-77
2022/08/29 04:28:42;;;;;;;14.30;7.72;;;;;;;21.36;67.65;99435.59;1726979;81;21460;-71
2022/08/29 04:31:20;;;;;;;17.02;8.20;;;;;;;21.36;67.82;99439.13;1726607;83;21044;-71
2022/08/29 04:33:47;;;;;;;12.25;7.75;;;;;;;21.36;67.60;99439.13;1752841;81;21104;-72
2022/08/29 04:36:14;;;;;;;12.10;7.25;;;;;;;21.38;67.64;99441.55;1737784;81;21090;-71
2022/08/29 04:38:41;;;;;;;16.27;8.58;;;;;;;21.37;67.73;99441.30;1709069;84;21061;-72
2022/08/29 04:41:13;;;;;;;14.25;6.78;;;;;;;21.37;67.77;99446.22;1711260;81;21146;-71
2022/08/29 04:43:38;;;;;;;13.68;8.40;;;;;;;21.35;67.84;99448.46;1726745;82;20988;-71
2022/08/29 04:46:05;;;;;;;13.95;7.33;;;;;;;21.34;67.82;99442.78;1740040;81;21058;-72
2022/08/29 04:48:32;;;;;;;12.00;7.12;;;;;;;21.33;67.92;99445.27;1729441;80;21482;-71
2022/08/29 04:51:00;;;;;;;15.30;8.13;;;;;;;21.31;67.84;99446.95;1725062;83;21060;-70
2022/08/29 04:53:26;;;;;;;12.28;6.33;;;;;;;21.31;67.78;99444.22;1726195;81;21746;-73
2022/08/29 04:55:58;;;;;;;11.28;6.78;;;;;;;21.31;67.46;99448.88;1740002;81;21113;-72
2022/08/29 04:58:24;;;;;;;9.78;7.08;;;;;;;21.29;67.11;99457.41;1725101;83;20968;-71
2022/08/29 05:00:52;;;;;;;12.45;6.60;;;;;;;21.28;67.05;99448.17;1698853;83;21035;-72
2022/08/29 05:03:19;;;;;;;12.33;6.62;;;;;;;21.27;66.88;99458.88;1725376;83;20992;-72
2022/08/29 05:06:00;;;;;;;19.37;9.55;;;;;;;21.27;66.63;99450.11;1725043;81;21653;-72
2022/08/29 05:08:28;;;;;;;14.90;6.87;;;;;;;21.29;66.05;99458.77;1712608;81;21035;-72
2022/08/29 05:10:56;;;;;;;8.78;6.78;;;;;;;21.31;65.83;99462.56;1724957;81;21052;-71
2022/08/29 05:13:22;;;;;;;10.38;6.75;;;;;;;21.33;65.51;99462.25;1725176;81;21063;-72
2022/08/29 05:15:49;;;;;;;10.28;7.08;;;;;;;21.34;65.17;99460.56;1721639;81;21069;-74
2022/08/29 05:18:16;;;;;;;16.37;6.25;;;;;;;21.36;64.97;99458.84;1709170;84;21218;-74
2022/08/29 05:20:46;;;;;;;13.65;5.92;;;;;;;21.37;64.81;99455.79;1709098;84;21202;-74
2022/08/29 05:23:14;;;;;;;16.25;5.92;;;;;;;21.39;64.69;99455.47;1708999;84;21137;-75
2022/08/29 05:25:42;;;;;;;6.85;5.78;;;;;;;21.39;64.62;99458.21;1712903;81;21016;-73
2022/08/29 05:28:12;;;;;;;10.30;5.83;;;;;;;21.41;64.36;99458.67;1725757;81;21556;-75
2022/08/29 05:30:39;;;;;;;9.88;5.87;;;;;;;21.40;64.23;99445.55;1726207;81;21154;-71
2022/08/29 05:33:06;;;;;;;13.05;5.67;;;;;;;21.44;64.28;99447.09;1730247;81;20983;-73
2022/08/29 05:35:33;;;;;;;10.65;5.87;;;;;;;21.47;64.24;99453.27;1703291;82;20986;-72
2022/08/29 05:38:03;;;;;;;7.58;4.90;;;;;;;21.51;64.11;99448.73;1708402;83;21047;-72
2022/08/29 05:40:29;;;;;;;11.05;5.53;;;;;;;21.56;63.93;99449.36;1713766;83;21035;-74
2022/08/29 05:43:01;;;;;;;20.02;7.03;;;;;;;21.59;63.70;99448.70;1720975;83;21078;-71
2022/08/29 05:45:24;;;;;;;15.70;6.42;;;;;;;21.61;63.76;99457.39;1705879;83;21077;-73
2022/08/29 05:47:51;;;;;;;10.43;6.10;;;;;;;21.65;63.50;99447.39;1712344;83;20990;-73
2022/08/29 05:50:18;;;;;;;9.35;5.97;;;;;;;21.70;63.51;99444.47;1711743;82;21024;-72
2022/08/29 05:52:44;;;;;;;9.58;5.92;;;;;;;21.75;63.50;99447.02;1716486;82;21039;-73
2022/08/29 05:55:12;;;;;;;14.35;6.28;;;;;;;21.79;63.50;99444.98;1725362;82;21899;-71
2022/08/29 05:57:38;;;;;;;11.55;5.87;;;;;;;21.83;63.51;99450.03;1722899;82;21460;-72
2022/08/29 06:00:08;;;;;;;11.73;5.75;;;;;;;21.87;63.60;99447.67;1724163;83;21649;-73
2022/08/29 06:02:36;;;;;;;9.88;6.80;;;;;;;21.92;63.47;99448.85;1711579;82;21020;-73
2022/08/29 06:05:04;;;;;;;17.20;8.45;;;;;;;21.98;63.56;99442.66;1719366;82;21051;-73
2022/08/29 06:07:32;;;;;;;11.12;7.22;;;;;;;22.04;63.45;99446.81;1685618;83;21156;-73
2022/08/29 06:10:00;;;;;;;10.65;5.55;;;;;;;22.09;63.15;99452.91;1713999;82;21505;-71
2022/08/29 06:12:28;;;;;;;8.10;6.65;;;;;;;22.14;62.75;99451.34;1712275;82;20924;-70
2022/08/29 06:14:54;;;;;;;9.20;6.15;;;;;;;22.18;62.71;99448.17;1722541;82;21034;-75
2022/08/29 06:17:21;;;;;;;20.90;6.92;;;;;;;22.25;62.62;99455.08;1742198;82;21104;-71
2022/08/29 06:19:50;;;;;;;11.75;6.35;;;;;;;22.30;62.41;99452.14;1742232;82;21334;-71
2022/08/29 06:22:18;;;;;;;17.98;9.95;;;;;;;22.34;62.34;99450.33;1730535;82;21063;-81
2022/08/29 06:24:45;;;;;;;14.25;6.20;;;;;;;22.40;62.30;99451.72;1737813;81;21811;-72
2022/08/29 06:27:12;;;;;;;14.30;7.12;;;;;;;22.47;62.26;99452.80;1703763;84;21034;-71
2022/08/29 06:29:39;;;;;;;13.30;7.03;;;;;;;22.55;62.15;99457.41;1725120;81;21014;-71
2022/08/29 06:32:06;;;;;;;12.98;7.20;;;;;;;22.63;61.89;99465.34;1720547;81;21094;-72
2022/08/29 06:34:32;;;;;;;19.45;8.75;;;;;;;22.70;61.58;99461.52;1712439;81;20955;-70
2022/08/29 06:36:59;;;;;;;15.18;7.85;;;;;;;22.77;61.22;99459.61;1757275;81;21484;-70
2022/08/29 06:39:25;;;;;;;24.35;8.53;;;;;;;22.84;61.29;99464.77;1741615;80;21028;-73
2022/08/29 06:41:52;;;;;;;16.65;7.67;;;;;;;22.92;61.07;99465.28;1725157;83;21127;-69
2022/08/29 06:44:20;;;;;;;13.30;8.30;;;;;;;22.99;60.26;99460.03;1723825;81;21191;-70
2022/08/29 06:46:49;;;;;;;16.70;7.75;;;;;;;23.08;59.71;99461.88;1707015;81;21663;-71
2022/08/29 06:49:17;;;;;;;18.82;8.28;;;;;;;23.14;59.48;99468.20;1698808;83;21540;-70
2022/08/29 06:51:47;;;;;;;10.98;7.15;;;;;;;23.24;58.77;99465.60;1731920;81;21026;-69
2022/08/29 06:54:14;;;;;;;18.15;9.30;;;;;;;23.33;58.25;99463.56;1726412;81;21021;-70
2022/08/29 06:56:40;;;;;;;14.40;7.80;;;;;;;23.41;58.18;99463.45;1721008;83;21168;-71
2022/08/29 06:59:07;;;;;;;17.20;8.28;;;;;;;23.49;58.08;99457.69;1720767;83;21035;-71
2022/08/29 07:01:34;;;;;;;15.43;7.87;;;;;;;23.60;57.72;99467.63;1720761;83;21036;-70
2022/08/29 07:04:02;;;;;;;17.25;8.55;;;;;;;23.69;57.57;99464.23;1720774;83;21021;-71
2022/08/29 07:06:29;;;;;;;28.35;9.55;;;;;;;23.80;57.16;99477.72;1715438;83;21025;-71
2022/08/29 07:08:57;;;;;;;22.10;9.93;;;;;;;23.89;55.88;99472.91;1704633;83;21756;-73
2022/08/29 07:11:28;;;;;;;18.92;9.95;;;;;;;23.99;55.65;99474.41;1705810;82;21108;-79
2022/08/29 07:13:59;;;;;;;18.35;9.33;;;;;;;24.08;55.24;99479.20;1713094;83;21070;-74
2022/08/29 07:16:26;;;;;;;14.93;9.03;;;;;;;24.18;54.92;99471.90;1718531;83;21043;-73
2022/08/29 07:18:53;;;;;;;18.75;7.87;;;;;;;24.27;54.68;99476.13;1719578;83;21587;-75
2022/08/29 07:21:23;;;;;;;20.05;8.98;;;;;;;24.36;54.39;99476.02;1719512;83;22126;-73
2022/08/29 07:23:50;;;;;;;13.70;8.58;;;;;;;24.46;53.91;99474.14;1717832;83;20975;-76
2022/08/29 07:26:28;;;;;;;14.70;9.80;;;;;;;24.55;53.52;99472.09;1689207;84;21504;-73
2022/08/29 07:28:57;;;;;;;18.25;9.40;;;;;;;24.64;53.37;99477.44;1713099;83;21168;-72
2022/08/29 07:31:24;;;;;;;13.53;9.03;;;;;;;24.74;52.93;99476.95;1717624;83;20975;-74
2022/08/29 07:33:51;;;;;;;13.98;9.58;;;;;;;24.83;52.49;99482.30;1719157;83;21503;-73
2022/08/29 07:36:22;;;;;;;15.53;9.53;;;;;;;24.94;52.22;99486.20;1719122;83;21003;-71
2022/08/29 07:38:49;;;;;;;16.48;10.65;;;;;;;25.02;51.82;99488.80;1697925;83;21090;-73
2022/08/29 07:41:19;;;;;;;21.35;10.55;;;;;;;25.12;51.12;99483.36;1687979;83;21079;-72
2022/08/29 07:43:46;;;;;;;22.52;10.15;;;;;;;25.23;51.18;99488.56;1674842;85;21065;-72
2022/08/29 07:46:15;;;;;;;17.27;10.95;;;;;;;25.34;50.73;99481.97;1722980;82;21760;-71
2022/08/29 07:48:42;;;;;;;15.63;10.20;;;;;;;25.43;50.43;99478.47;1715616;83;20986;-71
2022/08/29 07:51:12;;;;;;;10.80;9.20;;;;;;;25.53;49.90;99479.33;1704128;84;21062;-72
2022/08/29 07:53:39;;;;;;;10.15;8.68;;;;;;;25.62;49.57;99474.47;1693013;84;21047;-72
2022/08/29 07:56:07;;;;;;;19.98;10.55;;;;;;;25.71;49.46;99479.23;1686040;85;20991;-74
2022/08/29 07:58:35;;;;;;;17.60;9.68;;;;;;;25.79;49.37;99478.27;1685828;85;21176;-73
2022/08/29 08:01:03;;;;;;;11.05;9.25;;;;;;;25.87;49.39;99467.63;1702973;82;21011;-75
2022/08/29 08:03:31;;;;;;;19.02;8.98;;;;;;;25.97;49.13;99471.80;1708914;82;20923;-80
2022/08/29 08:05:59;;;;;;;14.95;9.45;;;;;;;26.06;48.64;99469.65;1713506;82;20923;-72
2022/08/29 08:08:25;;;;;;;15.98;10.18;;;;;;;26.16;47.95;99468.30;1699598;82;21718;-77
2022/08/29 08:10:52;;;;;;;14.00;9.88;;;;;;;26.23;47.59;99462.41;1705262;82;21509;-73
2022/08/29 08:13:18;;;;;;;22.90;9.68;;;;;;;26.30;47.51;99468.08;1687004;83;20983;-70
2022/08/29 08:15:45;;;;;;;19.87;9.58;;;;;;;26.37;47.14;99470.20;1708799;82;20986;-73
2022/08/29 08:18:12;;;;;;;16.75;9.75;;;;;;;26.45;47.14;99468.61;1712249;82;21007;-72
2022/08/29 08:20:39;;;;;;;11.75;9.90;;;;;;;26.53;46.58;99479.21;1721710;83;21500;-74
2022/08/29 08:23:06;;;;;;;11.15;9.80;;;;;;;26.62;46.52;99472.12;1730385;83;21104;-75
2022/08/29 08:25:32;;;;;;;14.35;9.25;;;;;;;26.70;46.16;99475.25;1729065;83;21019;-72
2022/08/29 08:27:59;;;;;;;18.80;9.48;;;;;;;26.78;45.92;99470.88;1725927;83;20925;-71
2022/08/29 08:30:26;;;;;;;17.87;9.58;;;;;;;26.86;45.31;99467.70;1702332;83;21110;-75
2022/08/29 08:32:52;;;;;;;13.93;10.30;;;;;;;26.93;44.91;99473.38;1729437;83;21032;-71
2022/08/29 08:35:20;;;;;;;12.58;8.85;;;;;;;27.01;44.66;99465.45;1729232;83;21095;-72
2022/08/29 08:37:48;;;;;;;20.35;9.53;;;;;;;27.09;44.10;99469.16;1717445;82;21191;-73
2022/08/29 08:40:20;;;;;;;14.28;10.40;;;;;;;27.17;43.86;99477.22;1706687;82;21003;-73
2022/08/29 08:42:48;;;;;;;10.65;8.58;;;;;;;27.25;43.69;99472.61;1705431;84;21071;-74
2022/08/29 08:45:25;;;;;;;12.63;10.20;;;;;;;27.33;43.73;99471.02;1710946;82;21115;-73
2022/08/29 08:47:59;;;;;;;13.88;9.85;;;;;;;27.42;43.40;99486.55;1706304;82;21075;-71
2022/08/29 08:50:34;;;;;;;18.40;10.65;;;;;;;27.52;42.92;99484.02;1696834;82;21086;-74
2022/08/29 08:53:23;;;;;;;15.40;10.58;;;;;;;27.62;42.65;99490.89;1721079;82;21481;-72
2022/08/29 08:55:53;;;;;;;11.90;10.50;;;;;;;27.72;42.23;99481.98;1732886;82;21046;-75
2022/08/29 08:58:51;;;;;;;15.40;9.85;;;;;;;27.82;42.39;99490.24;1718345;82;21777;-74
2022/08/29 09:01:39;;;;;;;13.53;9.80;;;;;;;27.90;42.46;99490.56;1707109;84;21096;-72
2022/08/29 09:04:20;;;;;;;18.05;9.58;;;;;;;27.94;41.75;99505.23;1706407;84;21037;-74
2022/08/29 09:07:11;;;;;;;19.82;11.35;;;;;;;27.99;41.21;99498.81;1706391;82;21008;-73
2022/08/29 09:10:09;;;;;;;16.55;11.10;;;;;;;28.05;40.80;99486.28;1710477;82;21071;-73
2022/08/29 09:13:11;;;;;;;12.30;10.18;;;;;;;28.15;40.45;99489.80;1705842;84;21099;-73
2022/08/29 09:15:45;;;;;;;18.48;10.43;;;;;;;28.25;40.31;99486.98;1708260;82;21769;-71
2022/08/29 09:18:29;;;;;;;18.52;10.45;;;;;;;28.34;40.13;99498.60;1710570;82;21026;-71
2022/08/29 09:20:58;;;;;;;;;;;;;;;28.42;40.20;99496.14;1712096;82;21159;-75
2022/08/29 09:23:33;;;;;;;15.88;10.60;;;;;;;28.47;40.07;99490.28;1707696;82;20539;-75
2022/08/29 09:26:00;;;;;;;10.08;8.58;;;;;;;28.53;40.13;99493.53;1706903;82;21034;-73
2022/08/29 09:28:26;;;;;;;11.33;9.23;;;;;;;28.63;39.59;99505.92;1702111;82;21075;-73
2022/08/29 09:31:26;;;;;;;14.60;10.68;;;;;;;28.70;39.28;99490.19;1702645;82;21023;-73
2022/08/29 09:34:06;;;;;;;18.60;10.15;;;;;;;28.76;39.28;99489.31;1722106;82;20967;-71
2022/08/29 09:36:48;;;;;;;15.90;11.08;;;;;;;28.86;39.06;99494.98;1716664;82;21048;-73
2022/08/29 09:39:27;;;;;;;14.98;9.53;;;;;;;28.98;38.73;99491.95;1729685;83;22023;-71
2022/08/29 09:41:58;;;;;;;13.75;9.15;;;;;;;29.10;38.13;99497.04;1709419;82;21148;-72
2022/08/29 09:44:32;;;;;;;15.28;9.80;;;;;;;29.20;37.59;99512.98;1717315;83;21085;-75
2022/08/29 09:47:12;;;;;;;16.17;10.43;;;;;;;29.19;37.47;99488.64;1689694;84;21092;-72
2022/08/29 09:49:43;;;;;;;13.75;10.08;;;;;;;29.21;37.05;99486.89;1690672;84;21104;-73
2022/08/29 09:52:13;;;;;;;14.03;10.23;;;;;;;29.23;37.21;99488.67;1700198;83;21105;-73
2022/08/29 09:54:43;;;;;;;16.85;9.50;;;;;;;29.27;36.54;99481.19;1705562;84;21803;-73
2022/08/29 09:57:21;;;;;;;28.07;10.98;;;;;;;29.29;35.96;99508.73;1707126;82;21066;-73
2022/08/29 10:00:11;;;;;;;18.82;10.53;;;;;;;29.31;36.35;99488.39;1702300;82;21061;-76
2022/08/29 10:02:49;;;;;;;11.68;10.28;;;;;;;29.34;36.44;99480.72;1718839;81;21043;-75
2022/08/29 10:05:33;;;;;;;19.45;9.48;;;;;;;29.38;35.89;99485.70;1707423;82;21042;-72
2022/08/29 10:08:04;;;;;;;18.45;9.30;;;;;;;29.42;35.68;99478.80;1703923;81;21094;-74
2022/08/29 10:10:34;;;;;;;16.45;10.13;;;;;;;29.45;35.78;99483.58;1680137;84;21578;-74
2022/08/29 10:13:14;;;;;;;15.00;9.33;;;;;;;29.55;35.43;99487.62;1717465;83;21061;-74
2022/08/29 10:16:16;;;;;;;17.60;7.20;;;;;;;29.65;34.88;99486.94;1703894;83;21631;-73
2022/08/29 10:18:51;;;;;;;14.13;7.33;;;;;;;29.76;33.08;99483.67;1692468;84;21009;-76
2022/08/29 10:21:33;;;;;;;22.80;9.48;;;;;;;29.85;33.31;99482.17;1696993;83;21520;-74
2022/08/29 10:24:33;;;;;;;11.18;8.18;;;;;;;29.92;32.63;99488.99;1693670;83;21012;-73
2022/08/29 10:27:17;;;;;;;9.73;7.17;;;;;;;29.94;32.98;99482.45;1710560;83;21636;-75
2022/08/29 10:30:09;;;;;;;21.45;8.00;;;;;;;29.98;32.77;99488.82;1713714;82;21159;-72
2022/08/29 10:33:08;;;;;;;15.30;7.75;;;;;;;30.03;32.85;99479.55;1706778;82;21055;-72
2022/08/29 10:35:45;;;;;;;15.00;8.68;;;;;;;30.10;32.42;99469.91;1710937;82;21108;-70
2022/08/29 10:38:49;;;;;;;10.60;8.45;;;;;;;30.18;32.22;99472.12;1714470;82;21002;-70
2022/08/29 10:41:53;;;;;;;23.15;9.03;;;;;;;30.25;32.35;99476.35;1685028;82;21086;-70
2022/08/29 10:45:12;;;;;;;13.03;8.25;;;;;;;30.41;32.19;99468.50;1719974;82;21079;-70
2022/08/29 10:47:52;;;;;;;9.85;8.75;;;;;;;30.53;32.19;99499.34;1717632;82;21022;-74
2022/08/29 10:50:32;;;;;;;15.78;9.15;;;;;;;30.61;31.89;99474.00;1710790;83;21164;-81
2022/08/29 10:53:19;;;;;;;11.40;8.30;;;;;;;30.65;31.70;99468.45;1710696;83;21034;-73
2022/08/29 10:55:58;;;;;;;12.85;8.43;;;;;;;30.68;31.50;99459.36;1710145;82;21641;-72
2022/08/29 10:58:48;;;;;;;15.05;7.90;;;;;;;30.78;31.66;99459.20;1717347;82;20951;-74
2022/08/29 11:01:52;;;;;;;17.90;10.28;;;;;;;30.91;31.36;99464.02;1716340;82;21119;-77
2022/08/29 11:04:33;;;;;;;10.20;8.53;;;;;;;31.04;31.33;99454.16;1712177;82;21144;-72
2022/08/29 11:07:11;;;;;;;15.50;10.20;;;;;;;31.18;31.36;99463.91;1718842;82;21098;-75
2022/08/29 11:09:54;;;;;;;12.60;9.78;;;;;;;31.29;31.24;99465.33;1729734;81;21088;-71
2022/08/29 11:12:40;;;;;;;12.78;8.05;;;;;;;31.40;31.33;99461.19;1718970;82;21156;-73
2022/08/29 11:15:34;;;;;;;10.65;8.58;;;;;;;31.55;30.67;99460.02;1714934;82;21013;-71
2022/08/29 11:18:12;;;;;;;17.42;10.05;;;;;;;31.67;29.36;99469.38;1717719;82;21679;-75
2022/08/29 11:20:48;;;;;;;19.23;10.13;;;;;;;31.72;29.58;99458.45;1720809;82;21505;-69
2022/08/29 11:23:26;;;;;;;15.25;8.78;;;;;;;31.76;29.69;99453.09;1717940;82;21067;-74
2022/08/29 11:25:54;;;;;;;12.60;10.40;;;;;;;31.87;29.24;99454.48;1760823;78;21193;-69
2022/08/29 11:28:30;;;;;;;12.75;9.28;;;;;;;31.91;29.00;99456.66;1737591;81;26353;-68
2022/08/29 11:31:22;;;;;;;14.47;9.55;;;;;;;31.88;29.07;99455.48;1725891;82;21926;-69
2022/08/29 11:34:04;;;;;;;11.70;8.38;;;;;;;32.01;28.63;99451.68;1728097;81;21030;-70
2022/08/29 11:36:47;;;;;;;21.30;9.58;;;;;;;32.17;28.09;99454.08;1742681;81;20993;-71
2022/08/29 11:39:45;;;;;;;15.10;9.85;;;;;;;32.16;27.36;99471.38;1729872;81;21021;-73
2022/08/29 11:42:11;;;;;;;15.60;9.75;;;;;;;32.20;27.27;99472.16;1715444;82;21024;-74
2022/08/29 11:44:48;;;;;;;14.93;9.98;;;;;;;32.14;27.01;99451.48;1750001;81;21055;-74
2022/08/29 11:47:48;;;;;;;10.98;9.00;;;;;;;32.14;27.25;99460.42;1721492;83;21677;-76